createdAt,value
2022-08-20T08:58:16.603Z,1968.00
2022-08-20T08:59:13.146Z,2132.00
2022-08-20T09:00:13.099Z,2272.00
2022-08-20T09:01:52.916Z,2472.00
2022-08-20T09:02:13.083Z,2544.00
2022-08-20T09:03:12.973Z,2696.00
2022-08-20T09:04:12.938Z,2924.00
2022-08-20T09:05:12.888Z,3212.00
2022-08-20T09:06:12.854Z,3116.00
2022-08-20T09:07:12.801Z,3384.00
2022-08-20T09:08:16.816Z,3548.00
2022-08-20T09:09:12.718Z,3448.00
2022-08-20T09:10:12.676Z,3948.00
2022-08-20T09:11:12.633Z,4128.00
2022-08-20T09:12:12.593Z,4020.00
2022-08-20T09:13:12.548Z,3468.00
2022-08-20T09:14:12.507Z,4136.00
2022-08-20T12:04:01.641Z,1380.00
2022-08-20T12:05:01.599Z,1468.00
2022-08-20T12:07:39.168Z,1488.00
2022-08-20T12:08:39.126Z,3228.00
2022-08-20T12:09:42.923Z,3148.00
2022-08-20T12:10:39.045Z,3000.00
2022-08-20T12:11:39.009Z,3088.00
2022-08-20T12:12:38.971Z,1724.00
2022-08-20T12:13:47.826Z,3136.00
2022-08-20T12:14:38.886Z,3180.00
2022-08-20T12:15:38.968Z,3264.00
2022-08-20T12:16:38.843Z,3060.00
2022-08-20T12:17:38.768Z,3012.00
2022-08-20T12:18:38.725Z,1416.00
2022-08-20T12:19:38.689Z,1820.00
2022-08-20T12:20:38.655Z,3028.00
2022-08-20T12:21:38.612Z,1368.00
2022-08-20T12:22:38.566Z,1188.00
2022-08-20T12:23:38.530Z,1692.00
2022-08-20T12:24:38.489Z,1836.00
2022-08-20T12:25:38.452Z,1332.00
2022-08-20T12:26:38.410Z,1220.00
2022-08-20T12:27:38.371Z,1128.00
2022-08-20T12:28:38.331Z,1080.00
2022-08-20T12:29:38.293Z,1068.00
2022-08-20T12:30:38.254Z,1112.00
2022-08-20T12:31:38.215Z,1136.00
2022-08-20T12:32:38.178Z,1148.00
2022-08-20T12:33:38.135Z,1028.00
2022-08-20T12:34:38.092Z,1024.00
2022-08-20T12:35:38.061Z,952.00
2022-08-20T12:36:38.020Z,864.00
2022-08-20T12:39:11.427Z,724.00
2022-08-20T12:40:11.431Z,1028.00
2022-08-20T12:41:11.344Z,640.00
2022-08-20T12:42:11.302Z,524.00
2022-08-20T12:43:11.274Z,404.00
2022-08-20T12:44:13.378Z,352.00
2022-08-20T12:45:11.189Z,316.00
2022-08-20T12:46:11.140Z,272.00
2022-08-20T12:47:11.105Z,240.00
2022-08-20T12:48:11.063Z,228.00
2022-08-20T12:49:11.025Z,232.00
2022-08-20T12:50:10.982Z,248.00
2022-08-20T12:51:10.946Z,296.00
2022-08-20T12:52:10.900Z,360.00
2022-08-20T12:53:10.867Z,416.00
2022-08-20T12:54:10.821Z,444.00
2022-08-20T12:55:10.793Z,460.00
2022-08-20T12:56:10.745Z,492.00
2022-08-20T12:57:10.702Z,540.00
2022-08-20T12:58:10.658Z,624.00
2022-08-20T12:59:10.621Z,736.00
2022-08-20T13:00:10.579Z,892.00
2022-08-20T13:01:10.598Z,980.00
2022-08-20T13:02:14.100Z,1036.00
2022-08-20T13:03:45.086Z,1096.00
2022-08-20T13:04:10.420Z,3568.00
2022-08-20T13:05:10.378Z,3496.00
2022-08-20T13:06:10.341Z,3512.00
2022-08-20T13:07:11.578Z,3824.00
2022-08-20T13:08:10.259Z,4020.00
2022-08-20T13:09:10.216Z,4172.00
2022-08-20T13:10:10.173Z,4724.00
2022-08-20T13:11:10.133Z,4468.00
2022-08-20T13:12:10.092Z,4676.00
2022-08-20T13:13:10.049Z,5964.00
2022-08-20T13:14:10.013Z,6012.00
2022-08-20T13:15:09.969Z,5288.00
2022-08-20T13:16:09.933Z,4596.00
2022-08-20T13:17:53.150Z,4968.00
2022-08-20T13:18:53.101Z,4504.00
2022-08-20T13:31:50.254Z,5044.00
2022-08-20T13:32:50.237Z,4912.00
2022-08-20T13:33:50.188Z,4484.00
2022-08-20T13:34:50.135Z,4568.00
2022-08-20T13:35:50.095Z,4480.00
2022-08-20T13:36:50.052Z,4748.00
2022-08-20T13:58:15.017Z,2608.00
2022-08-20T13:59:14.994Z,2564.00
2022-08-20T14:08:59.928Z,4420.00
2022-08-20T14:09:59.888Z,4828.00
2022-08-20T14:10:59.846Z,4856.00
2022-08-20T14:11:59.804Z,4628.00
2022-08-20T14:12:59.765Z,4576.00
2022-08-20T14:13:59.723Z,4684.00
2022-08-20T14:20:52.743Z,5988.00
2022-08-20T14:22:52.693Z,5496.00
2022-08-20T14:23:52.622Z,5300.00
2022-08-20T14:24:52.577Z,5076.00
2022-08-20T14:25:52.538Z,4552.00
2022-08-20T14:26:52.497Z,4456.00
2022-08-20T14:27:52.461Z,4564.00
2022-08-20T14:28:52.423Z,4640.00
2022-08-20T14:29:52.375Z,4496.00
2022-08-20T14:30:53.037Z,4544.00
2022-08-20T14:31:52.295Z,4904.00
2022-08-20T14:32:52.255Z,4880.00
2022-08-20T14:33:52.218Z,5520.00
2022-08-20T14:34:52.171Z,5708.00
2022-08-20T14:35:52.134Z,5668.00
2022-08-20T14:36:52.092Z,5384.00
2022-08-20T14:37:52.057Z,5452.00
2022-08-20T14:38:52.011Z,5724.00
2022-08-20T14:39:52.040Z,5816.00
2022-08-20T14:40:51.929Z,5736.00
2022-08-20T14:41:51.890Z,6092.00
2022-08-20T14:42:52.010Z,5872.00
2022-08-20T14:43:51.812Z,5884.00
2022-08-20T14:44:51.767Z,5788.00
2022-08-20T14:45:51.729Z,5908.00
2022-08-20T14:46:51.689Z,5684.00
2022-08-20T14:47:53.824Z,5768.00
2022-08-20T14:48:51.838Z,5712.00
2022-08-20T14:49:51.569Z,5384.00
2022-08-20T14:50:51.533Z,5148.00
2022-08-20T14:51:51.489Z,4644.00
2022-08-20T14:52:51.449Z,5124.00
2022-08-20T14:53:51.408Z,5132.00
2022-08-20T14:54:51.367Z,4504.00
2022-08-20T14:55:51.328Z,5040.00
2022-08-20T14:56:51.287Z,4168.00
2022-08-20T14:57:51.314Z,3680.00
2022-08-20T14:58:51.207Z,3520.00
2022-08-20T14:59:51.168Z,3384.00
2022-08-20T15:00:51.178Z,3336.00
2022-08-20T15:01:51.086Z,3580.00
2022-08-20T15:02:51.045Z,3728.00
2022-08-20T15:03:51.130Z,3740.00
2022-08-20T15:04:53.892Z,4144.00
2022-08-20T15:05:50.924Z,4488.00
2022-08-20T15:06:50.883Z,4816.00
2022-08-20T15:07:51.592Z,5192.00
2022-08-20T15:08:50.805Z,5888.00
2022-08-20T15:09:50.768Z,6468.00
2022-08-20T15:10:50.721Z,6568.00
2022-08-20T15:11:50.685Z,6656.00
2022-08-20T15:12:50.696Z,6712.00
2022-08-20T15:13:50.603Z,6756.00
2022-08-20T15:14:50.561Z,6980.00
2022-08-20T15:15:50.523Z,7032.00
2022-08-20T15:16:50.483Z,7148.00
2022-08-20T15:17:50.471Z,7048.00
2022-08-20T15:18:50.423Z,6152.00
2022-08-20T15:19:50.362Z,5684.00
2022-08-20T15:20:50.321Z,5084.00
2022-08-20T15:21:50.348Z,4592.00
2022-08-20T15:22:50.412Z,4116.00
2022-08-20T15:23:50.202Z,3924.00
2022-08-20T15:24:50.161Z,3668.00
2022-08-20T15:25:50.121Z,3352.00
2022-08-20T15:26:50.079Z,3700.00
2022-08-20T15:27:50.048Z,3408.00
2022-08-20T15:28:50.004Z,3636.00
2022-08-20T15:29:49.966Z,4168.00
2022-08-20T15:30:49.919Z,4896.00
2022-08-20T15:31:49.883Z,5940.00
2022-08-20T15:32:54.614Z,6524.00
2022-08-20T15:33:49.806Z,5504.00
2022-08-20T15:34:49.766Z,5840.00
2022-08-20T15:35:49.723Z,4560.00
2022-08-20T15:36:49.689Z,4112.00
2022-08-20T15:37:49.668Z,3828.00
2022-08-20T15:38:49.603Z,3452.00
2022-08-20T15:39:49.603Z,8056.00
2022-08-20T15:40:49.521Z,6936.00
2022-08-20T15:41:49.480Z,7936.00
2022-08-20T15:42:49.461Z,4948.00
2022-08-20T15:43:49.401Z,4808.00
2022-08-20T15:44:49.359Z,4316.00
2022-08-20T15:45:49.321Z,3956.00
2022-08-20T15:46:49.278Z,3984.00
2022-08-20T15:47:49.240Z,4264.00
2022-08-20T15:48:49.198Z,4512.00
2022-08-20T15:49:49.170Z,4864.00
2022-08-20T15:50:49.120Z,5260.00
2022-08-20T15:51:49.078Z,9612.00
2022-08-20T15:52:49.038Z,18848.00
2022-08-20T15:53:48.998Z,8788.00
2022-08-20T15:54:48.957Z,24448.00
2022-08-20T15:55:48.922Z,24160.00
2022-08-20T16:43:59.578Z,71552.00
2022-08-20T16:44:59.542Z,85408.00
2022-08-20T17:13:54.831Z,1044.00
2022-08-20T17:14:54.791Z,908.00
2022-08-20T17:15:54.758Z,812.00
2022-08-20T17:26:54.000Z,1160.00
2022-08-20T17:27:52.840Z,1308.00
2022-08-20T17:40:43.933Z,2548.00
2022-08-20T17:41:43.894Z,2448.00
2022-08-20T17:42:43.855Z,2540.00
2022-08-20T17:43:43.814Z,2804.00
2022-08-20T17:44:43.779Z,2668.00
2022-08-20T18:31:49.575Z,176.00
2022-08-20T18:32:49.538Z,160.00
2022-08-20T18:33:49.500Z,144.00
2022-08-20T18:34:49.450Z,136.00
2022-08-20T18:35:49.416Z,120.00
2022-08-20T18:36:49.368Z,112.00
2022-08-20T18:37:49.330Z,104.00
2022-08-20T18:38:49.287Z,96.00
2022-08-20T18:39:49.292Z,88.00
2022-08-20T18:40:53.126Z,76.00
2022-08-20T18:41:49.163Z,68.00
2022-08-20T18:42:49.121Z,64.00
2022-08-20T18:43:49.083Z,56.00
2022-08-20T18:44:49.037Z,44.00
2022-08-20T18:45:49.006Z,44.00
2022-08-20T18:46:48.961Z,40.00
2022-08-20T18:47:48.916Z,36.00
2022-08-20T18:48:48.874Z,28.00
